Breckenridge, Illinois
Current Conditions -  °F | °C
As of 2:52 PM on Monday 24 Nov 2014 (Local Time) from KSPI Reporting Station
Overcast Overcast  
Wind Chill: 24°   Ceiling: 3000
Heat Index: 35°   Visibility: 10mi
Dew Point: 27°   Wind: 21mph
Humidity: 72%   Direction: 260°W
Pressure: 29.72"   Gusts: 33mph
Location:  39.7312°N, 89.5322°W
Report Text: KSPI 242052Z 26018G29KT 10SM SCT025 BKN030 OVC036 02/M03 A2972 RMK AO2 PK WND 26029/2045 SLP067 T00171028 53028
Loading
Personal Weather Stations






























Interactive Weather Map New forecast layout! Learn more

10-Day Weather Forecast

Advertisements
Track Severe Weather on mobile